createdAt,value
2023-12-14T05:32:56.895Z,63.58
2023-12-14T05:35:23.843Z,58.67
2023-12-14T05:45:58.680Z,61.13
2023-12-14T05:51:27.684Z,62.00
2023-12-14T05:54:05.111Z,62.72
2023-12-14T05:56:32.182Z,58.53
2023-12-14T05:58:59.097Z,59.58
2023-12-14T06:01:26.871Z,65.82
2023-12-14T06:03:54.025Z,59.10
2023-12-14T06:06:20.967Z,57.83
2023-12-14T06:08:48.410Z,52.55
2023-12-14T06:11:15.446Z,54.10
2023-12-14T06:13:42.311Z,50.60
2023-12-14T06:16:16.892Z,46.65
2023-12-14T06:18:53.539Z,44.67
2023-12-14T06:21:20.784Z,53.42
2023-12-14T06:23:50.522Z,55.75
2023-12-14T06:28:59.242Z,49.70
2023-12-14T06:31:29.257Z,54.55
2023-12-14T06:34:00.089Z,49.15
2023-12-14T06:36:33.633Z,52.53
2023-12-14T06:39:01.093Z,53.13
2023-12-14T06:41:31.392Z,51.53
2023-12-14T06:44:01.233Z,50.60
2023-12-14T06:46:30.913Z,46.72
2023-12-14T06:48:58.793Z,57.13
2023-12-14T06:51:38.521Z,55.72
2023-12-14T06:54:05.334Z,52.45
2023-12-14T06:56:34.967Z,50.17
2023-12-14T06:59:02.156Z,51.90
2023-12-14T07:01:29.915Z,56.80
2023-12-14T07:04:00.106Z,56.67
2023-12-14T07:06:26.941Z,54.53
2023-12-14T07:08:53.595Z,79.57
2023-12-14T07:12:08.180Z,68.32
2023-12-14T07:14:38.207Z,64.63
2023-12-14T07:17:05.022Z,52.50
2023-12-14T07:19:32.126Z,53.28
2023-12-14T07:21:59.231Z,48.83
2023-12-14T07:24:26.104Z,52.63
2023-12-14T07:26:53.099Z,44.38
2023-12-14T07:29:20.174Z,49.03
2023-12-14T07:31:47.271Z,41.03
2023-12-14T07:34:17.339Z,45.35
2023-12-14T07:36:46.681Z,48.80
2023-12-14T07:39:13.733Z,54.10
2023-12-14T07:41:40.872Z,47.25
2023-12-14T07:44:08.302Z,45.03
2023-12-14T07:46:36.817Z,47.13
2023-12-14T07:49:04.038Z,41.47
2023-12-14T07:51:31.108Z,45.13
2023-12-14T07:53:57.865Z,50.42
2023-12-14T07:56:26.978Z,47.22
2023-12-14T07:58:53.904Z,45.90
2023-12-14T08:01:21.969Z,45.60
2023-12-14T08:03:48.884Z,47.67
2023-12-14T08:06:16.837Z,49.65
2023-12-14T08:08:43.954Z,48.15
2023-12-14T08:11:10.951Z,44.78
2023-12-14T08:13:38.966Z,42.05
2023-12-14T08:16:06.076Z,39.40
2023-12-14T08:18:32.920Z,47.05
2023-12-14T08:20:59.873Z,40.97
2023-12-14T08:23:29.103Z,41.00
2023-12-14T08:25:59.111Z,46.53
2023-12-14T08:28:26.668Z,43.92
2023-12-14T08:30:53.679Z,41.58
2023-12-14T08:33:20.504Z,40.72
2023-12-14T08:35:47.347Z,37.55
2023-12-14T08:38:14.097Z,48.05
2023-12-14T08:40:40.926Z,39.08
2023-12-14T08:43:07.813Z,45.65
2023-12-14T08:45:34.558Z,42.25
2023-12-14T08:48:01.501Z,42.58
2023-12-14T08:50:28.408Z,46.58
2023-12-14T08:52:56.026Z,45.83
2023-12-14T08:55:23.347Z,45.00
2023-12-14T08:57:50.367Z,41.78
2023-12-14T09:00:18.869Z,41.85
2023-12-14T09:02:47.323Z,41.85
2023-12-14T09:05:16.751Z,40.17
2023-12-14T09:07:47.555Z,40.38
2023-12-14T09:10:14.307Z,37.92
2023-12-14T09:12:41.042Z,38.42
2023-12-14T09:15:08.145Z,41.67
2023-12-14T09:17:37.408Z,48.03
2023-12-14T09:20:06.657Z,41.63
2023-12-14T09:22:34.536Z,46.53
2023-12-14T09:25:01.250Z,46.75
2023-12-14T09:27:28.281Z,42.70
2023-12-14T09:29:55.329Z,50.47
2023-12-14T09:32:22.078Z,43.60
2023-12-14T09:34:48.884Z,38.58
2023-12-14T09:37:16.241Z,43.22
2023-12-14T09:39:43.062Z,44.33
2023-12-14T09:42:10.088Z,45.47
2023-12-14T09:44:38.496Z,43.78
2023-12-14T09:47:05.815Z,42.80
2023-12-14T09:49:33.696Z,46.13
2023-12-14T09:52:01.071Z,53.05
2023-12-14T09:54:28.024Z,48.20
2023-12-14T09:56:55.030Z,53.83
2023-12-14T09:59:23.489Z,45.78
2023-12-14T10:01:50.534Z,46.40
2023-12-14T10:04:18.448Z,48.38
2023-12-14T10:06:46.239Z,44.95
2023-12-14T10:09:17.978Z,47.05
2023-12-14T10:11:45.118Z,49.80
2023-12-14T10:14:26.171Z,46.28
2023-12-14T10:17:01.108Z,41.38
2023-12-14T10:19:30.492Z,41.67
2023-12-14T10:21:57.514Z,38.35
2023-12-14T10:24:24.306Z,42.20
2023-12-14T10:26:52.713Z,38.90
2023-12-14T10:29:19.722Z,37.67
2023-12-14T10:31:47.087Z,38.28
2023-12-14T10:34:14.678Z,35.65
2023-12-14T10:36:41.962Z,38.72
2023-12-14T10:39:09.938Z,38.03
2023-12-14T10:41:37.085Z,33.78
2023-12-14T10:44:19.933Z,38.30
2023-12-14T10:46:53.723Z,34.25
2023-12-14T10:49:20.779Z,36.33
2023-12-14T10:51:49.317Z,38.88
2023-12-14T10:54:17.206Z,38.85
2023-12-14T10:56:44.154Z,40.97
2023-12-14T10:59:10.920Z,38.25
2023-12-14T11:01:41.085Z,31.10
2023-12-14T11:04:08.084Z,38.30
2023-12-14T11:06:39.742Z,36.15
2023-12-14T11:09:08.105Z,43.22
2023-12-14T11:11:42.939Z,39.03
2023-12-14T11:14:12.562Z,45.63
2023-12-14T11:16:45.956Z,43.00
2023-12-14T11:19:25.906Z,46.10
2023-12-14T11:21:58.542Z,51.67
2023-12-14T11:24:25.384Z,45.05
2023-12-14T11:26:52.165Z,46.38
2023-12-14T11:29:20.675Z,44.60
2023-12-14T11:31:47.612Z,48.53
2023-12-14T11:34:16.869Z,42.00
2023-12-14T11:36:43.982Z,40.97
2023-12-14T11:39:11.025Z,40.47
2023-12-14T11:41:39.820Z,44.22
2023-12-14T11:44:06.743Z,41.67
2023-12-14T11:46:33.847Z,45.97
2023-12-14T11:49:00.940Z,46.38
2023-12-14T11:51:28.033Z,44.78
2023-12-14T11:53:54.885Z,41.78
2023-12-14T11:56:23.998Z,41.28
2023-12-14T11:58:51.036Z,38.40
2023-12-14T12:01:19.025Z,44.53
2023-12-14T12:03:46.847Z,59.47
2023-12-14T12:06:24.474Z,51.15
2023-12-14T12:08:51.903Z,54.08
2023-12-14T12:11:19.526Z,59.78
2023-12-14T12:13:51.356Z,52.97
2023-12-14T12:16:18.507Z,53.33
2023-12-14T12:18:45.335Z,51.67
2023-12-14T12:21:15.375Z,53.90
2023-12-14T12:23:43.343Z,49.67
2023-12-14T12:26:10.723Z,47.92
2023-12-14T12:28:38.219Z,48.80
2023-12-14T12:31:05.677Z,49.95
2023-12-14T12:33:39.208Z,51.22
2023-12-14T12:36:06.916Z,48.13
2023-12-14T12:38:33.808Z,41.00
2023-12-14T12:41:02.168Z,45.28
2023-12-14T12:43:29.262Z,48.08
2023-12-14T12:45:55.937Z,45.00
2023-12-14T12:48:25.726Z,41.65
2023-12-14T12:50:54.204Z,46.30
2023-12-14T12:53:21.960Z,45.33
2023-12-14T12:55:48.824Z,46.10
2023-12-14T12:58:16.354Z,48.95
2023-12-14T13:00:43.231Z,35.67
2023-12-14T13:03:11.379Z,40.13
2023-12-14T13:05:38.446Z,40.78
2023-12-14T13:08:05.562Z,43.22
2023-12-14T13:10:33.170Z,40.55
2023-12-14T13:13:00.776Z,41.92
2023-12-14T13:15:30.879Z,42.63
2023-12-14T13:17:58.113Z,40.53
2023-12-14T13:20:25.007Z,43.65
2023-12-14T13:22:51.964Z,40.92
2023-12-14T13:25:18.891Z,41.53
2023-12-14T13:27:45.728Z,40.60
2023-12-14T13:30:19.492Z,45.30
2023-12-14T13:32:47.483Z,50.30
2023-12-14T13:35:15.234Z,48.85
2023-12-14T13:37:43.339Z,42.78
2023-12-14T13:40:14.516Z,45.75
2023-12-14T13:42:50.992Z,48.55
2023-12-14T13:45:28.174Z,49.17
2023-12-14T13:47:55.472Z,42.15
2023-12-14T13:50:23.602Z,46.90
2023-12-14T13:52:50.495Z,45.63
2023-12-14T13:55:17.930Z,37.60
2023-12-14T13:57:44.876Z,49.70
2023-12-14T14:00:13.219Z,46.05
2023-12-14T14:02:40.701Z,44.42
2023-12-14T14:05:07.833Z,42.53
2023-12-14T14:07:35.630Z,44.40
2023-12-14T14:10:03.453Z,47.33
2023-12-14T14:12:30.954Z,46.22
2023-12-14T14:14:58.093Z,53.55
2023-12-14T14:17:25.414Z,50.80
2023-12-14T14:19:52.943Z,48.20
2023-12-14T14:22:22.229Z,42.65
2023-12-14T14:24:56.031Z,39.63
2023-12-14T14:27:29.401Z,39.17
2023-12-14T14:29:58.388Z,45.42
2023-12-14T14:32:25.706Z,46.92
2023-12-14T14:34:58.413Z,49.25
2023-12-14T14:37:25.992Z,45.90
2023-12-14T14:39:53.541Z,43.83
2023-12-14T14:42:23.764Z,46.70
2023-12-14T14:44:50.899Z,40.85
2023-12-14T14:47:23.572Z,45.67
2023-12-14T14:49:51.050Z,41.42
2023-12-14T14:52:18.721Z,39.85
2023-12-14T14:54:45.840Z,43.65
2023-12-14T14:57:13.297Z,43.67
2023-12-14T14:59:40.885Z,42.40
2023-12-14T15:02:07.993Z,49.92
2023-12-14T15:04:35.465Z,52.00
2023-12-14T15:07:04.522Z,46.97
2023-12-14T15:09:31.799Z,45.63
2023-12-14T15:11:59.640Z,61.92
2023-12-14T15:14:28.947Z,61.55
2023-12-14T15:16:56.742Z,58.55
2023-12-14T15:19:32.900Z,57.58
2023-12-14T15:21:59.818Z,58.55
2023-12-14T15:24:27.234Z,55.75
2023-12-14T15:26:54.229Z,46.53
2023-12-14T15:29:23.014Z,49.70
2023-12-14T15:31:51.639Z,51.50
2023-12-14T15:34:19.898Z,53.25
2023-12-14T15:36:46.914Z,55.00
2023-12-14T15:39:13.891Z,59.45
2023-12-14T15:41:41.365Z,59.30
2023-12-14T15:44:09.192Z,63.03
2023-12-14T15:46:36.430Z,65.13
2023-12-14T15:49:04.351Z,78.72
2023-12-14T15:51:31.825Z,54.72
2023-12-14T15:54:00.880Z,57.45
2023-12-14T15:56:32.305Z,49.60
2023-12-14T15:59:04.577Z,51.20
2023-12-14T16:01:31.682Z,59.70
2023-12-14T16:03:59.162Z,46.10
2023-12-14T16:06:27.467Z,53.03
2023-12-14T16:08:54.359Z,46.60
2023-12-14T16:11:22.232Z,48.75
2023-12-14T16:13:51.317Z,50.22
2023-12-14T16:16:18.442Z,44.13
2023-12-14T16:18:45.397Z,39.20
2023-12-14T16:21:12.332Z,50.47
2023-12-14T16:23:39.842Z,41.05
2023-12-14T16:26:07.667Z,52.33
2023-12-14T16:28:35.812Z,48.20
2023-12-14T16:31:11.592Z,50.10
2023-12-14T16:33:40.008Z,41.95
2023-12-14T16:36:15.318Z,42.90
2023-12-14T16:38:44.228Z,40.83
2023-12-14T16:41:12.448Z,36.65
2023-12-14T16:43:39.917Z,41.05
2023-12-14T16:46:07.403Z,36.70
2023-12-14T16:48:38.152Z,34.25
2023-12-14T16:51:07.057Z,35.25
2023-12-14T16:53:34.414Z,32.17
2023-12-14T16:56:02.381Z,33.15
2023-12-14T16:58:31.498Z,35.63
2023-12-14T17:01:01.588Z,33.63
2023-12-14T17:03:29.689Z,32.33
2023-12-14T17:05:56.849Z,27.70
2023-12-14T17:08:24.094Z,28.60
2023-12-14T17:10:51.450Z,23.13
2023-12-14T17:13:20.037Z,26.48
2023-12-14T17:15:48.064Z,27.40
2023-12-14T17:18:15.902Z,29.17
2023-12-14T17:20:43.760Z,26.35
2023-12-14T17:23:11.435Z,31.08
2023-12-14T17:25:38.549Z,32.85
2023-12-14T17:28:06.598Z,33.13
2023-12-14T17:30:37.500Z,33.45
2023-12-14T17:33:08.182Z,33.40
2023-12-14T17:35:38.649Z,30.58
2023-12-14T17:38:06.195Z,26.50
2023-12-14T17:40:34.241Z,29.13
2023-12-14T17:43:01.576Z,29.40
2023-12-14T17:45:29.127Z,25.45
2023-12-14T17:50:37.987Z,27.70
2023-12-14T17:53:05.692Z,24.65
2023-12-14T17:55:33.118Z,20.70
2023-12-14T17:58:01.017Z,23.40
2023-12-14T18:00:29.245Z,21.10
2023-12-14T18:02:56.456Z,20.38
2023-12-14T18:05:27.588Z,19.00
2023-12-14T18:07:54.522Z,20.00
2023-12-14T18:10:22.604Z,17.55
2023-12-14T18:12:51.682Z,18.67
2023-12-14T18:15:19.526Z,19.05
2023-12-14T18:17:48.256Z,18.27
2023-12-14T18:20:16.321Z,18.65
2023-12-14T18:22:44.149Z,22.90
2023-12-14T18:25:14.326Z,23.42
2023-12-14T18:27:42.202Z,22.33
2023-12-14T18:30:12.820Z,22.48
2023-12-14T18:32:40.790Z,23.88
2023-12-14T18:35:08.672Z,24.35
2023-12-14T18:37:36.941Z,21.90
2023-12-14T18:40:05.420Z,24.92
2023-12-14T18:42:33.289Z,24.90
2023-12-14T18:45:01.295Z,25.35
2023-12-14T18:47:30.194Z,18.10
2023-12-14T18:50:05.318Z,21.20
2023-12-14T18:52:34.557Z,21.65
2023-12-14T18:55:02.089Z,24.70
2023-12-14T18:57:32.496Z,22.55
2023-12-14T19:00:03.172Z,26.83
2023-12-14T19:02:31.268Z,28.20
2023-12-14T19:05:02.827Z,34.78
2023-12-14T19:07:30.626Z,29.85
2023-12-14T19:10:02.089Z,27.52
2023-12-14T19:12:30.251Z,26.58
2023-12-14T19:15:00.363Z,26.27
2023-12-14T19:17:28.499Z,28.17
2023-12-14T19:19:56.542Z,34.72
2023-12-14T19:22:26.285Z,26.05
2023-12-14T19:24:53.590Z,23.38
2023-12-14T19:27:23.859Z,32.00
2023-12-14T19:29:51.397Z,28.25
2023-12-14T19:32:19.307Z,23.98
2023-12-14T19:34:51.042Z,23.73
2023-12-14T19:37:18.853Z,27.70
2023-12-14T19:39:48.198Z,25.35
2023-12-14T19:42:18.268Z,25.67
2023-12-14T19:44:45.216Z,28.85
2023-12-14T19:47:12.139Z,25.05
2023-12-14T19:49:39.312Z,28.88
2023-12-14T19:52:06.362Z,27.10
2023-12-14T19:54:33.436Z,34.67
2023-12-14T19:57:00.556Z,30.90
2023-12-14T19:59:30.221Z,33.03
2023-12-14T20:01:57.575Z,32.53
2023-12-14T20:04:24.553Z,33.38
2023-12-14T20:06:53.536Z,31.02
2023-12-14T20:09:20.460Z,30.80
2023-12-14T20:11:52.277Z,27.33
2023-12-14T20:14:20.082Z,29.60
2023-12-14T20:16:48.949Z,31.50
2023-12-14T20:19:16.562Z,28.38
2023-12-14T20:21:43.553Z,29.20
2023-12-14T20:24:15.990Z,32.45
2023-12-14T20:26:42.980Z,28.27
2023-12-14T20:29:09.939Z,32.75
2023-12-14T20:31:36.819Z,35.67
2023-12-14T20:34:04.672Z,32.33
2023-12-14T20:36:35.416Z,28.88
2023-12-14T20:39:04.583Z,29.98
2023-12-14T20:41:31.747Z,27.20
2023-12-14T20:43:58.757Z,23.77
2023-12-14T20:46:28.944Z,30.38
2023-12-14T20:48:55.964Z,27.75
2023-12-14T20:51:26.885Z,38.42
2023-12-14T20:53:57.017Z,38.17
2023-12-14T20:56:24.033Z,31.50
2023-12-14T20:58:51.084Z,30.23
2023-12-14T21:01:18.193Z,27.63
2023-12-14T21:03:51.681Z,29.33
2023-12-14T21:06:22.379Z,25.70
2023-12-14T21:08:51.706Z,26.75
2023-12-14T21:11:21.542Z,30.63
2023-12-14T21:13:51.856Z,26.13
2023-12-14T21:16:19.083Z,25.13
2023-12-14T21:18:48.298Z,25.60
2023-12-14T21:21:16.259Z,27.60
2023-12-14T21:23:43.344Z,29.25
2023-12-14T21:26:13.867Z,25.13
2023-12-14T21:28:41.296Z,25.42
2023-12-14T21:31:08.526Z,25.17
2023-12-14T21:33:36.260Z,25.95
2023-12-14T21:36:03.545Z,24.63
2023-12-14T21:38:36.560Z,21.55
2023-12-14T21:41:04.136Z,22.02
2023-12-14T21:43:32.139Z,24.20
2023-12-14T21:46:07.796Z,26.92
2023-12-14T21:48:35.164Z,24.50
2023-12-14T21:51:02.244Z,22.27
2023-12-14T21:53:31.640Z,24.95
2023-12-14T21:55:58.913Z,21.65
2023-12-14T21:58:25.898Z,23.90
2023-12-14T22:00:55.522Z,24.10
2023-12-14T22:03:23.075Z,19.90
2023-12-14T22:05:50.702Z,20.88
2023-12-14T22:08:18.445Z,18.63
2023-12-14T22:10:45.546Z,22.98
2023-12-14T22:13:12.899Z,17.40
2023-12-14T22:15:40.847Z,20.25
2023-12-14T22:18:10.396Z,19.10
2023-12-14T22:20:38.088Z,22.15
2023-12-14T22:23:05.293Z,20.15
2023-12-14T22:25:33.271Z,18.00
2023-12-14T22:28:00.328Z,19.48
2023-12-14T22:30:27.421Z,20.95
2023-12-14T22:32:54.866Z,17.27
2023-12-14T22:35:24.772Z,15.48
2023-12-14T22:37:51.848Z,19.50
2023-12-14T22:40:18.667Z,16.20
2023-12-14T22:42:45.852Z,16.70
2023-12-14T22:45:12.660Z,17.02
2023-12-14T22:47:40.070Z,19.15
2023-12-14T22:50:07.700Z,16.63
2023-12-14T22:52:34.577Z,16.08
2023-12-14T22:55:01.565Z,18.65
2023-12-14T22:57:28.669Z,15.68
2023-12-14T22:59:58.500Z,18.92
2023-12-14T23:02:28.670Z,15.75
2023-12-14T23:05:07.076Z,16.92
2023-12-14T23:07:33.953Z,16.55
2023-12-14T23:10:01.845Z,20.40
2023-12-14T23:12:33.291Z,20.88
2023-12-14T23:15:03.310Z,15.52
2023-12-14T23:17:31.940Z,22.38
2023-12-14T23:19:59.249Z,20.80
2023-12-14T23:22:26.284Z,20.25
2023-12-14T23:24:53.447Z,22.15
2023-12-14T23:27:21.307Z,20.50
2023-12-14T23:29:48.162Z,23.02
2023-12-14T23:32:18.519Z,18.63
2023-12-14T23:35:06.888Z,22.98
2023-12-14T23:37:38.419Z,20.27
2023-12-14T23:40:13.850Z,23.10
2023-12-14T23:42:40.997Z,19.83
